Time;durP1;ratioP1;P1;durP2;ratioP2;P2;SDS_P1;SDS_P2;PMS_P1;PMS_P2;Temp;Humidity;BMP_temperature;BMP_pressure;BME280_temperature;BME280_humidity;BME280_pressure;Samples;Min_cycle;Max_cycle;Signal;HPM_P1;HPM_P2
2021/05/09 00:00:49;;;;;;;8.25;3.10;;;;;;;5.55;72.13;99768.00;127931;1104;22808;-84
2021/05/09 00:03:17;;;;;;;6.80;3.50;;;;;;;5.54;72.32;99768.22;127803;1104;23442;-83
2021/05/09 00:05:46;;;;;;;5.43;3.03;;;;;;;5.52;72.29;99765.73;128029;1095;25725;-84
2021/05/09 00:08:14;;;;;;;7.50;3.60;;;;;;;5.52;72.45;99771.14;128127;1104;22858;-84
2021/05/09 00:10:42;;;;;;;6.07;2.93;;;;;;;5.50;72.43;99766.99;128095;1096;22779;-84
2021/05/09 00:13:10;;;;;;;4.65;2.95;;;;;;;5.48;71.99;99775.31;129489;1104;23056;-84
2021/05/09 00:15:38;;;;;;;5.50;2.80;;;;;;;5.47;72.43;99770.16;128411;1104;23272;-85
2021/05/09 00:18:06;;;;;;;5.20;3.10;;;;;;;5.43;72.09;99768.93;128208;1104;25250;-85
2021/05/09 00:20:35;;;;;;;8.25;3.85;;;;;;;5.40;72.10;99774.77;127955;1104;23572;-85
2021/05/09 00:23:03;;;;;;;6.27;3.50;;;;;;;5.36;72.13;99781.64;127815;1104;22778;-85
2021/05/09 00:25:31;;;;;;;6.53;4.07;;;;;;;5.30;72.11;99773.38;128021;1104;22801;-84
2021/05/09 00:27:59;;;;;;;5.55;2.85;;;;;;;5.27;72.60;99781.91;127884;1103;22816;-85
2021/05/09 00:30:27;;;;;;;8.25;3.60;;;;;;;5.26;72.38;99787.53;127798;1104;23594;-84
2021/05/09 00:32:56;;;;;;;5.13;2.80;;;;;;;5.23;72.66;99788.78;128392;1104;23740;-84
2021/05/09 00:35:27;;;;;;;4.40;2.95;;;;;;;5.22;72.51;99792.53;127842;1104;22770;-84
2021/05/09 00:37:55;;;;;;;6.00;2.85;;;;;;;5.21;72.43;99784.64;127929;1096;28332;-84
2021/05/09 00:40:23;;;;;;;4.53;3.00;;;;;;;5.20;72.90;99793.78;128660;1098;22813;-85
2021/05/09 00:42:54;;;;;;;4.85;2.55;;;;;;;5.19;72.67;99797.56;128662;1098;22812;-84
2021/05/09 00:45:22;;;;;;;4.63;2.80;;;;;;;5.17;72.99;99788.84;128576;1098;22745;-85
2021/05/09 00:47:51;;;;;;;5.55;2.90;;;;;;;5.14;72.75;99808.17;128595;1098;22738;-84
2021/05/09 00:50:19;;;;;;;4.95;2.80;;;;;;;5.11;72.62;99806.73;128714;1098;22885;-84
2021/05/09 00:52:47;;;;;;;6.00;2.75;;;;;;;5.08;72.51;99815.25;130351;1098;22534;-84
2021/05/09 00:55:16;;;;;;;4.30;2.55;;;;;;;5.06;72.72;99803.00;129518;1098;23292;-83
2021/05/09 00:57:46;;;;;;;5.10;2.63;;;;;;;5.04;72.74;99805.95;128541;1098;22793;-83
2021/05/09 01:00:14;;;;;;;3.25;2.40;;;;;;;5.02;72.80;99812.60;129818;1098;22689;-84
2021/05/09 01:02:43;;;;;;;3.55;2.25;;;;;;;5.02;72.76;99808.03;129664;1098;22783;-84
2021/05/09 01:05:11;;;;;;;2.85;2.30;;;;;;;4.90;73.01;99790.85;128489;1098;22923;-84
2021/05/09 01:07:40;;;;;;;4.65;1.75;;;;;;;5.03;73.06;99815.09;128624;1098;23501;-84
2021/05/09 01:10:11;;;;;;;2.70;1.95;;;;;;;5.03;73.01;99814.26;128472;1098;22860;-83
2021/05/09 01:12:38;;;;;;;1.90;1.70;;;;;;;5.04;73.36;99815.92;128643;1098;22747;-83
2021/05/09 01:15:07;;;;;;;6.85;2.10;;;;;;;5.02;73.04;99826.94;129037;1098;23535;-84
2021/05/09 01:17:35;;;;;;;3.35;1.75;;;;;;;5.02;72.74;99823.41;128260;1101;23278;-84
2021/05/09 01:20:29;;;;;;;3.00;2.05;;;;;;;5.01;73.11;99827.97;127970;1101;24183;-84
2021/05/09 01:22:58;;;;;;;3.85;2.10;;;;;;;5.00;73.07;99830.88;128059;1101;22818;-84
2021/05/09 01:25:27;;;;;;;3.05;2.20;;;;;;;4.98;72.92;99831.09;128087;1101;22920;-84
2021/05/09 01:27:56;;;;;;;4.00;2.30;;;;;;;4.94;72.83;99837.95;129933;1101;22581;-84
2021/05/09 01:30:24;;;;;;;2.43;1.90;;;;;;;4.92;72.78;99842.73;130017;1101;23408;-84
2021/05/09 01:32:53;;;;;;;2.45;2.10;;;;;;;4.88;73.23;99841.53;129985;1101;22573;-84
2021/05/09 01:35:21;;;;;;;2.77;1.77;;;;;;;4.89;73.07;99840.48;130001;1101;22620;-83
2021/05/09 01:37:49;;;;;;;2.75;2.00;;;;;;;4.86;73.21;99839.04;129946;1101;22752;-84
2021/05/09 01:40:17;;;;;;;3.33;2.07;;;;;;;4.85;73.28;99842.78;129979;1101;23796;-84
2021/05/09 01:42:45;;;;;;;5.60;1.90;;;;;;;4.85;73.42;99848.17;129973;1101;22800;-84
2021/05/09 01:45:13;;;;;;;3.55;2.15;;;;;;;4.86;73.04;99851.70;130036;1101;22558;-82
2021/05/09 01:47:42;;;;;;;3.40;2.50;;;;;;;4.83;73.14;99852.13;130214;1101;22639;-83
2021/05/09 01:50:12;;;;;;;3.77;2.40;;;;;;;4.80;73.30;99855.24;128452;1098;25296;-83
2021/05/09 01:52:41;;;;;;;6.10;2.30;;;;;;;4.79;73.30;99854.41;128661;1098;22766;-84
2021/05/09 01:55:13;;;;;;;5.45;2.20;;;;;;;4.77;73.13;99853.79;128351;1093;22777;-84
2021/05/09 01:57:42;;;;;;;4.75;2.40;;;;;;;4.75;73.46;99855.07;128635;1098;22777;-84
2021/05/09 02:00:16;;;;;;;3.90;2.40;;;;;;;4.72;72.76;99858.19;128620;1098;24029;-84
2021/05/09 02:02:51;;;;;;;4.08;2.50;;;;;;;4.70;73.34;99868.36;128564;1098;22789;-84
2021/05/09 02:05:24;;;;;;;3.60;2.47;;;;;;;4.66;73.06;99862.55;128654;1098;23394;-84
2021/05/09 02:07:52;;;;;;;3.80;2.25;;;;;;;4.63;73.26;99869.19;128534;1098;25552;-83
2021/05/09 02:10:20;;;;;;;3.40;2.20;;;;;;;4.61;73.26;99871.30;128311;1098;22766;-85
2021/05/09 02:12:51;;;;;;;3.80;2.20;;;;;;;4.60;73.15;99879.60;128309;1098;22730;-83
2021/05/09 02:15:47;;;;;;;6.10;2.50;;;;;;;4.56;73.50;99871.09;128525;1098;22807;-83
2021/05/09 02:18:17;;;;;;;5.53;2.83;;;;;;;4.54;72.92;99875.03;128680;1098;23328;-84
2021/05/09 02:20:45;;;;;;;5.25;2.80;;;;;;;4.50;73.36;99874.61;129750;1098;23137;-84
2021/05/09 02:23:14;;;;;;;6.00;2.60;;;;;;;4.47;73.61;99877.73;128647;1098;23180;-84
2021/05/09 02:25:42;;;;;;;5.70;3.37;;;;;;;4.44;73.33;99880.87;128522;1098;22796;-84
2021/05/09 02:28:11;;;;;;;3.80;2.75;;;;;;;4.41;73.55;99892.07;128554;1098;22779;-84
2021/05/09 02:30:39;;;;;;;5.03;2.53;;;;;;;4.38;73.47;99895.18;128633;1098;22779;-83
2021/05/09 02:33:14;;;;;;;3.65;2.70;;;;;;;4.35;73.59;99897.45;128656;1093;22787;-83
2021/05/09 02:35:44;;;;;;;3.78;2.83;;;;;;;4.35;74.06;99913.64;128455;1098;22794;-84
2021/05/09 02:38:12;;;;;;;3.13;2.27;;;;;;;4.33;74.32;99907.66;128675;1097;25286;-84
2021/05/09 02:40:41;;;;;;;4.15;2.30;;;;;;;4.34;73.79;99912.81;128614;1098;23339;-84
2021/05/09 02:43:15;;;;;;;3.73;2.07;;;;;;;4.35;73.90;99924.43;128569;1093;26347;-84
2021/05/09 02:45:43;;;;;;;5.05;2.25;;;;;;;4.36;74.04;99918.00;128699;1098;22792;-84
2021/05/09 02:48:11;;;;;;;6.20;2.80;;;;;;;4.40;74.19;99924.65;128717;1098;22795;-83
2021/05/09 02:50:40;;;;;;;3.60;2.10;;;;;;;4.42;74.26;99938.77;128643;1098;23379;-86
2021/05/09 02:53:11;;;;;;;4.00;2.45;;;;;;;4.43;74.39;99933.16;128553;1098;22753;-83
2021/05/09 02:55:40;;;;;;;4.60;2.63;;;;;;;4.46;74.13;99935.45;128440;1098;22731;-84
2021/05/09 02:58:09;;;;;;;3.75;2.30;;;;;;;4.48;73.96;99944.14;130362;1098;22747;-84
2021/05/09 03:00:37;;;;;;;5.00;3.00;;;;;;;4.50;73.98;99938.54;130372;1098;22550;-84
2021/05/09 03:03:13;;;;;;;4.90;2.90;;;;;;;4.51;74.15;99940.20;129099;1098;22765;-83
2021/05/09 03:05:41;;;;;;;5.05;2.90;;;;;;;4.53;74.06;99952.45;128563;1098;22828;-84
2021/05/09 03:08:09;;;;;;;4.70;3.35;;;;;;;4.53;73.73;99957.02;128493;1093;22890;-84
2021/05/09 03:10:39;;;;;;;4.43;3.13;;;;;;;4.55;73.89;99963.04;128566;1098;22737;-84
2021/05/09 03:13:07;;;;;;;5.53;3.57;;;;;;;4.60;74.03;99966.79;128719;1098;22759;-84
2021/05/09 03:15:52;;;;;;;8.50;3.90;;;;;;;4.66;73.90;99978.59;128560;1094;22975;-84
2021/05/09 03:18:20;;;;;;;5.05;3.55;;;;;;;4.72;73.76;99979.64;128547;1093;27021;-84
2021/05/09 03:20:48;;;;;;;6.60;3.40;;;;;;;4.77;73.71;99980.66;128612;1098;22794;-84
2021/05/09 03:23:17;;;;;;;4.65;2.95;;;;;;;4.85;74.04;99982.33;128329;1099;23587;-83
2021/05/09 03:25:46;;;;;;;4.17;3.40;;;;;;;4.92;73.78;99980.44;128401;1098;22783;-83
2021/05/09 03:28:14;;;;;;;4.80;3.20;;;;;;;4.98;73.47;99979.61;128960;1098;23270;-83
2021/05/09 03:30:42;;;;;;;6.80;2.90;;;;;;;5.04;73.44;99981.48;128729;1098;24026;-83
2021/05/09 03:33:10;;;;;;;4.15;2.75;;;;;;;5.09;73.72;99988.92;128742;1098;22681;-84
2021/05/09 03:35:38;;;;;;;5.45;3.25;;;;;;;5.13;73.02;99992.88;128538;1098;22619;-84
2021/05/09 03:38:06;;;;;;;4.60;3.20;;;;;;;5.19;73.14;99997.44;128494;1098;22795;-84
2021/05/09 03:40:34;;;;;;;5.23;3.33;;;;;;;5.23;72.79;99999.48;128373;1098;22847;-83
2021/05/09 03:43:03;;;;;;;5.40;2.90;;;;;;;5.28;73.03;99991.59;128697;1098;23065;-84
2021/05/09 03:45:32;;;;;;;4.67;3.03;;;;;;;5.33;72.74;99999.90;130491;1098;22711;-84
2021/05/09 03:48:01;;;;;;;3.40;2.10;;;;;;;5.40;72.85;100001.73;128526;1098;23202;-85
2021/05/09 03:50:29;;;;;;;6.25;3.30;;;;;;;5.46;72.68;100003.59;128613;1098;22765;-85
2021/05/09 03:52:58;;;;;;;5.50;2.35;;;;;;;5.51;72.31;100006.47;128598;1098;23418;-84
2021/05/09 03:55:25;;;;;;;3.73;2.30;;;;;;;5.55;72.56;100016.65;128567;1098;22776;-84
2021/05/09 03:57:53;;;;;;;6.15;3.10;;;;;;;5.59;72.86;100009.78;128610;1098;26510;-84
2021/05/09 04:00:21;;;;;;;3.65;2.60;;;;;;;5.64;72.70;100006.42;128515;1093;22924;-84
2021/05/09 04:02:52;;;;;;;4.30;2.85;;;;;;;5.70;72.45;100010.98;128384;1093;22715;-85
2021/05/09 04:05:19;;;;;;;4.10;2.80;;;;;;;5.75;71.73;100013.05;128918;1093;22792;-83
2021/05/09 04:07:48;;;;;;;5.77;3.20;;;;;;;5.79;72.14;100019.66;130304;1098;22666;-84
2021/05/09 04:10:17;;;;;;;3.20;2.65;;;;;;;5.84;72.31;100023.40;130385;1098;22547;-84
2021/05/09 04:12:51;;;;;;;4.10;2.45;;;;;;;5.88;71.46;100030.08;130371;1098;22590;-84
2021/05/09 04:15:19;;;;;;;4.27;3.07;;;;;;;5.89;71.79;100034.44;130405;1098;22582;-84
2021/05/09 04:17:47;;;;;;;4.15;2.60;;;;;;;5.94;71.08;100026.50;130422;1098;23764;-84
2021/05/09 04:20:15;;;;;;;6.47;2.50;;;;;;;6.00;71.89;100025.64;130372;1098;22657;-84
2021/05/09 04:22:43;;;;;;;3.50;2.60;;;;;;;6.06;71.06;100034.75;129973;1094;22886;-83
2021/05/09 04:25:12;;;;;;;4.95;2.45;;;;;;;6.15;71.77;100029.94;128532;1098;24399;-84
2021/05/09 04:27:40;;;;;;;5.10;2.95;;;;;;;6.24;70.74;100032.16;130133;1093;22614;-84
2021/05/09 04:30:09;;;;;;;4.43;2.90;;;;;;;6.31;70.85;100038.38;128389;1098;22766;-84
2021/05/09 04:32:37;;;;;;;4.70;2.90;;;;;;;6.42;70.97;100036.84;128337;1098;24209;-85
2021/05/09 04:35:05;;;;;;;7.00;4.60;;;;;;;6.54;70.79;100045.09;128710;1098;22637;-85
2021/05/09 04:37:35;;;;;;;5.55;2.90;;;;;;;6.67;71.06;100040.41;130352;1098;22723;-85
2021/05/09 04:40:03;;;;;;;7.95;3.00;;;;;;;6.83;69.68;100049.87;130380;1098;23170;-85
2021/05/09 04:42:30;;;;;;;5.37;2.77;;;;;;;6.97;70.12;100046.00;130325;1098;22607;-84
2021/05/09 04:44:58;;;;;;;4.85;3.25;;;;;;;7.12;69.65;100048.36;129053;1098;22776;-85
2021/05/09 04:47:26;;;;;;;4.60;2.85;;;;;;;7.27;69.55;100053.44;128542;1098;22827;-84
2021/05/09 04:49:55;;;;;;;5.25;3.75;;;;;;;7.44;68.60;100057.23;130282;1098;22576;-83
2021/05/09 04:52:23;;;;;;;10.40;4.65;;;;;;;7.61;68.06;100055.59;129805;1098;22782;-82
2021/05/09 04:54:51;;;;;;;10.40;4.90;;;;;;;7.78;67.58;100061.25;130163;1098;22559;-83
2021/05/09 04:57:19;;;;;;;7.60;3.90;;;;;;;7.95;67.18;100069.58;130299;1098;23333;-84
2021/05/09 04:59:47;;;;;;;5.20;3.60;;;;;;;8.09;66.57;100076.49;130258;1098;23272;-84
2021/05/09 05:02:16;;;;;;;5.70;3.10;;;;;;;8.23;66.21;100077.98;128816;1098;23520;-84
2021/05/09 05:04:47;;;;;;;5.95;3.25;;;;;;;8.37;65.79;100086.80;128668;1098;22764;-85
2021/05/09 05:07:15;;;;;;;5.45;3.20;;;;;;;8.46;65.62;100080.02;128603;1098;22748;-85
2021/05/09 05:09:44;;;;;;;4.30;3.40;;;;;;;8.58;65.06;100089.02;128685;1098;22767;-84
2021/05/09 05:12:12;;;;;;;5.45;3.25;;;;;;;8.65;64.26;100087.05;128638;1098;24566;-84
2021/05/09 05:14:40;;;;;;;4.60;2.90;;;;;;;8.72;63.83;100082.34;129715;1098;22772;-84
2021/05/09 05:17:08;;;;;;;4.80;2.80;;;;;;;8.74;63.36;100082.94;128676;1098;22797;-84
2021/05/09 05:19:36;;;;;;;5.87;2.87;;;;;;;8.78;63.65;100088.74;128500;1098;22894;-85
2021/05/09 05:22:04;;;;;;;5.35;2.70;;;;;;;8.82;62.92;100089.91;128436;1093;22814;-83
2021/05/09 05:24:32;;;;;;;4.13;3.20;;;;;;;8.83;63.14;100086.97;128459;1093;27084;-83
2021/05/09 05:27:00;;;;;;;5.63;2.90;;;;;;;8.89;62.79;100074.34;130243;1098;22734;-84
2021/05/09 05:29:28;;;;;;;4.45;2.40;;;;;;;8.98;63.08;100082.98;130406;1098;23042;-84
2021/05/09 05:31:56;;;;;;;3.30;2.60;;;;;;;9.07;62.92;100084.31;130346;1098;22586;-83
2021/05/09 05:34:24;;;;;;;4.27;2.67;;;;;;;9.15;62.53;100083.95;130372;1098;22493;-83
2021/05/09 05:36:52;;;;;;;4.45;3.00;;;;;;;9.21;62.48;100093.90;129829;1098;22784;-83
2021/05/09 05:39:20;;;;;;;4.10;2.60;;;;;;;9.28;61.80;100086.44;128543;1098;22774;-83
2021/05/09 05:41:48;;;;;;;3.60;2.80;;;;;;;9.34;61.55;100090.95;127683;1098;23793;-83
2021/05/09 05:44:16;;;;;;;4.95;2.40;;;;;;;9.39;60.37;100092.94;128709;1098;23651;-83
2021/05/09 05:46:48;;;;;;;3.30;2.63;;;;;;;9.41;60.33;100093.53;128543;1093;22744;-83
2021/05/09 05:49:19;;;;;;;6.43;1.97;;;;;;;9.38;59.08;100094.83;128198;1093;23670;-82
2021/05/09 05:51:47;;;;;;;4.00;2.03;;;;;;;9.34;58.99;100096.39;130350;1098;23485;-83
2021/05/09 05:54:16;;;;;;;2.65;2.10;;;;;;;9.35;59.62;100099.94;128682;1093;22766;-82
2021/05/09 05:56:44;;;;;;;5.13;2.20;;;;;;;9.37;59.45;100101.36;127593;1098;22770;-83
2021/05/09 05:59:11;;;;;;;2.75;2.05;;;;;;;9.42;59.58;100098.74;129897;1098;22760;-83
2021/05/09 06:01:40;;;;;;;3.30;2.00;;;;;;;9.45;59.18;100101.00;128858;1098;23786;-82
2021/05/09 06:04:08;;;;;;;2.80;2.10;;;;;;;9.50;58.79;100106.56;128451;1098;22773;-83
2021/05/09 06:06:38;;;;;;;3.73;2.20;;;;;;;9.53;57.50;100103.34;130359;1098;22607;-82
2021/05/09 06:10:12;;;;;;;3.00;1.85;;;;;;;9.49;57.30;100101.36;125719;1090;22752;-66
2021/05/09 06:12:40;;;;;;;1.95;1.60;;;;;;;9.49;57.19;100109.52;125374;1101;22912;-66
2021/05/09 06:15:08;;;;;;;2.40;1.80;;;;;;;9.50;57.00;100103.02;125377;1101;22756;-67
2021/05/09 06:17:36;;;;;;;3.67;2.33;;;;;;;9.54;56.51;100115.05;129993;1101;23065;-68
2021/05/09 06:20:05;;;;;;;5.37;2.07;;;;;;;9.57;57.37;100107.26;129996;1101;22537;-68
2021/05/09 06:22:33;;;;;;;2.90;1.70;;;;;;;9.64;56.58;100109.88;129957;1101;22525;-67
2021/05/09 06:25:01;;;;;;;2.40;1.70;;;;;;;9.67;56.44;100125.70;129947;1101;22573;-67
2021/05/09 06:27:28;;;;;;;3.43;2.00;;;;;;;9.68;55.78;100121.08;130006;1101;23218;-68
2021/05/09 06:29:56;;;;;;;5.00;1.70;;;;;;;9.66;54.55;100126.80;129986;1101;22577;-67
2021/05/09 06:32:24;;;;;;;3.35;1.80;;;;;;;9.64;55.27;100119.92;129988;1101;22602;-68
2021/05/09 06:34:53;;;;;;;4.00;2.60;;;;;;;9.68;55.55;100127.36;129969;1101;22792;-68
2021/05/09 06:37:21;;;;;;;2.13;1.77;;;;;;;9.73;54.75;100123.94;129985;1101;22604;-67
2021/05/09 06:39:49;;;;;;;3.27;1.80;;;;;;;9.77;54.71;100127.84;129968;1101;22675;-64
2021/05/09 06:42:17;;;;;;;4.27;2.03;;;;;;;9.81;54.43;100123.59;129961;1101;22569;-64
2021/05/09 06:44:53;;;;;;;2.30;1.80;;;;;;;9.84;54.38;100123.92;129975;1101;22636;-63
2021/05/09 06:47:21;;;;;;;2.55;1.85;;;;;;;9.85;53.73;100130.19;129990;1101;22530;-65
2021/05/09 06:49:49;;;;;;;3.13;1.63;;;;;;;9.82;53.76;100126.05;129922;1101;23383;-65
2021/05/09 06:52:17;;;;;;;2.90;2.35;;;;;;;9.82;54.69;100130.66;130002;1101;22530;-64
2021/05/09 06:54:44;;;;;;;2.00;1.80;;;;;;;9.87;54.16;100136.23;129950;1101;22532;-64
2021/05/09 06:57:12;;;;;;;5.20;1.70;;;;;;;9.91;54.68;100135.52;129761;1101;22655;-64
2021/05/09 06:59:41;;;;;;;2.63;1.73;;;;;;;9.97;54.43;100135.61;129835;1101;22588;-65
2021/05/09 07:02:09;;;;;;;2.10;1.70;;;;;;;10.01;54.41;100137.63;130003;1101;22523;-66
2021/05/09 07:04:37;;;;;;;2.97;1.77;;;;;;;10.07;54.42;100133.96;129970;1101;23158;-65
2021/05/09 07:07:05;;;;;;;2.57;1.70;;;;;;;10.12;54.53;100135.94;129990;1101;23527;-65
2021/05/09 07:09:33;;;;;;;2.47;1.53;;;;;;;10.17;54.12;100126.00;129991;1101;22575;-64
2021/05/09 07:12:03;;;;;;;2.88;2.00;;;;;;;10.23;54.02;100133.25;129962;1101;24363;-64
2021/05/09 07:14:31;;;;;;;2.03;1.60;;;;;;;10.32;53.69;100124.69;129983;1101;23071;-64
2021/05/09 07:16:59;;;;;;;3.00;1.47;;;;;;;10.40;53.85;100129.73;129961;1101;22572;-63
2021/05/09 07:19:27;;;;;;;2.13;1.75;;;;;;;10.50;53.40;100138.14;129998;1101;22596;-64
2021/05/09 07:22:00;;;;;;;2.83;1.90;;;;;;;10.57;52.90;100136.91;129986;1101;23061;-64
2021/05/09 07:24:29;;;;;;;2.20;1.63;;;;;;;10.63;52.42;100135.13;130005;1101;22643;-64
2021/05/09 07:26:57;;;;;;;3.08;1.90;;;;;;;10.67;51.90;100136.30;129944;1101;22569;-64
2021/05/09 07:29:25;;;;;;;6.63;2.30;;;;;;;10.68;52.11;100134.38;129990;1101;22601;-64
2021/05/09 07:31:52;;;;;;;2.93;1.70;;;;;;;10.73;53.09;100137.20;129991;1101;22622;-64
2021/05/09 07:34:20;;;;;;;3.13;2.00;;;;;;;10.82;51.94;100144.73;130019;1101;22551;-64
2021/05/09 07:36:48;;;;;;;4.93;1.70;;;;;;;10.83;51.16;100145.56;129998;1101;22545;-65
2021/05/09 07:39:16;;;;;;;2.35;1.80;;;;;;;10.82;51.01;100136.55;130008;1101;22567;-64
2021/05/09 07:41:44;;;;;;;3.25;1.90;;;;;;;10.82;51.23;100139.28;129962;1101;22528;-64
2021/05/09 07:44:12;;;;;;;1.83;1.45;;;;;;;10.85;51.45;100143.42;130031;1101;22543;-64
2021/05/09 07:46:40;;;;;;;3.35;1.60;;;;;;;10.89;50.45;100145.42;129962;1101;22516;-64
2021/05/09 07:49:08;;;;;;;2.40;1.90;;;;;;;10.93;50.16;100143.88;129967;1101;22576;-64
2021/05/09 07:51:36;;;;;;;2.65;1.60;;;;;;;10.96;49.95;100137.91;129981;1101;22530;-64
2021/05/09 07:54:05;;;;;;;3.00;1.90;;;;;;;10.98;50.09;100137.66;130008;1101;22649;-65
2021/05/09 07:56:36;;;;;;;2.30;1.80;;;;;;;10.98;50.37;100146.67;129728;1102;22563;-64
2021/05/09 07:59:04;;;;;;;2.53;1.75;;;;;;;11.03;50.03;100139.66;129949;1101;22640;-65
2021/05/09 08:01:32;;;;;;;2.20;1.58;;;;;;;11.09;49.76;100149.59;130026;1101;22540;-64
2021/05/09 08:04:00;;;;;;;2.23;1.60;;;;;;;11.12;49.47;100135.45;129978;1101;23401;-64
2021/05/09 08:06:28;;;;;;;2.18;1.53;;;;;;;11.16;49.84;100144.80;129989;1101;22523;-63
2021/05/09 08:08:57;;;;;;;2.73;1.50;;;;;;;11.20;49.03;100138.61;129944;1101;22670;-64
2021/05/09 08:11:25;;;;;;;4.43;1.80;;;;;;;11.23;49.49;100134.56;130017;1101;23145;-65
2021/05/09 08:13:55;;;;;;;2.00;1.68;;;;;;;11.30;50.08;100140.67;129999;1101;23410;-64
2021/05/09 08:16:24;;;;;;;2.40;1.85;;;;;;;11.40;49.24;100137.30;130004;1101;22654;-65
2021/05/09 08:18:52;;;;;;;2.25;1.90;;;;;;;11.40;48.92;100127.19;129954;1101;22573;-64
2021/05/09 08:21:21;;;;;;;2.50;1.75;;;;;;;11.40;49.11;100123.66;130025;1101;23482;-64
2021/05/09 08:23:48;;;;;;;2.38;1.73;;;;;;;11.44;49.93;100139.27;129934;1101;22542;-64
2021/05/09 08:26:16;;;;;;;2.48;1.43;;;;;;;11.46;48.89;100131.66;130025;1101;22630;-64
2021/05/09 08:28:44;;;;;;;1.75;1.30;;;;;;;11.49;50.04;100136.63;129994;1101;23517;-65
2021/05/09 08:31:16;;;;;;;1.28;1.18;;;;;;;11.55;48.33;100141.08;130036;1101;23387;-63
2021/05/09 08:33:44;;;;;;;1.55;1.28;;;;;;;11.57;46.58;100138.10;129950;1101;22583;-64
2021/05/09 08:36:12;;;;;;;2.75;1.30;;;;;;;11.56;47.96;100134.55;129924;1101;23594;-64
2021/05/09 08:38:40;;;;;;;3.45;1.30;;;;;;;11.59;47.58;100128.59;129935;1101;23283;-64
2021/05/09 08:41:08;;;;;;;1.68;1.40;;;;;;;11.64;46.78;100130.58;130020;1101;22612;-63
2021/05/09 08:43:36;;;;;;;2.00;1.73;;;;;;;11.65;45.89;100130.34;129943;1101;22632;-64
2021/05/09 08:46:05;;;;;;;1.33;1.23;;;;;;;11.59;46.56;100120.41;129988;1101;22591;-64
2021/05/09 08:48:33;;;;;;;1.90;1.63;;;;;;;11.58;47.48;100135.13;129660;1101;22519;-63
2021/05/09 08:51:03;;;;;;;1.93;1.30;;;;;;;11.60;47.41;100123.96;129919;1101;22563;-64
2021/05/09 08:53:32;;;;;;;3.45;1.93;;;;;;;11.63;47.96;100126.20;130011;1101;22522;-63
2021/05/09 08:56:00;;;;;;;2.08;1.28;;;;;;;11.67;48.19;100133.64;129999;1101;22618;-64
2021/05/09 08:58:28;;;;;;;1.30;1.10;;;;;;;11.70;47.18;100122.20;130012;1101;23068;-63
2021/05/09 09:00:56;;;;;;;1.70;1.50;;;;;;;11.75;46.77;100139.74;129991;1101;23166;-63
2021/05/09 09:03:23;;;;;;;1.63;1.35;;;;;;;11.80;47.34;100137.95;129993;1101;22553;-64
2021/05/09 09:05:52;;;;;;;2.05;1.40;;;;;;;11.87;47.22;100129.57;129678;1101;22643;-65
2021/05/09 09:08:20;;;;;;;2.98;2.28;;;;;;;11.93;47.39;100129.41;130006;1101;24076;-65
2021/05/09 09:10:57;;;;;;;2.45;1.35;;;;;;;12.01;46.89;100134.42;129950;1101;23655;-62
2021/05/09 09:13:29;;;;;;;2.83;1.63;;;;;;;12.04;46.66;100138.55;130027;1101;22650;-63
2021/05/09 09:16:00;;;;;;;1.63;1.38;;;;;;;12.03;46.47;100139.63;129675;1101;22526;-63
2021/05/09 09:18:42;;;;;;;2.73;1.20;;;;;;;12.01;45.57;100139.05;130022;1101;22617;-63
2021/05/09 09:21:27;;;;;;;1.85;1.50;;;;;;;12.00;45.20;100142.86;130002;1101;22537;-62
2021/05/09 09:23:57;;;;;;;1.65;1.50;;;;;;;11.99;45.78;100133.84;130013;1101;22542;-63
2021/05/09 09:26:27;;;;;;;1.70;1.58;;;;;;;12.01;45.87;100133.59;129989;1101;22542;-63
2021/05/09 09:28:55;;;;;;;1.70;1.13;;;;;;;12.03;45.44;100134.17;129992;1101;22676;-63
2021/05/09 09:31:39;;;;;;;2.18;1.50;;;;;;;12.09;46.52;100130.44;129943;1101;23538;-63
2021/05/09 09:34:07;;;;;;;1.70;1.60;;;;;;;12.20;47.24;100129.48;129977;1101;22583;-63
2021/05/09 09:36:35;;;;;;;1.75;1.35;;;;;;;12.26;46.48;100131.19;129963;1101;23308;-63
2021/05/09 09:39:07;;;;;;;3.23;1.60;;;;;;;12.31;46.34;100144.09;130006;1101;22537;-63
2021/05/09 09:41:43;;;;;;;2.20;1.88;;;;;;;12.32;45.09;100146.58;129971;1101;22580;-67
2021/05/09 09:44:13;;;;;;;2.55;1.40;;;;;;;12.30;46.12;100145.17;130056;1101;22528;-67
2021/05/09 09:46:53;;;;;;;3.93;1.40;;;;;;;12.28;45.54;100131.76;130028;1101;22598;-67
2021/05/09 09:49:31;;;;;;;1.40;1.30;;;;;;;12.35;45.68;100137.88;130015;1101;22538;-67
2021/05/09 09:52:00;;;;;;;1.90;1.30;;;;;;;12.42;46.46;100142.30;129897;1101;22586;-66
2021/05/09 09:54:45;;;;;;;2.28;1.88;;;;;;;12.47;47.01;100131.45;129986;1101;23011;-66
2021/05/09 09:57:24;;;;;;;4.48;1.65;;;;;;;12.54;47.53;100152.05;129656;1102;22625;-66
2021/05/09 10:00:14;;;;;;;2.95;1.23;;;;;;;12.64;44.85;100134.92;130009;1100;22616;-66
2021/05/09 10:02:45;;;;;;;1.88;1.40;;;;;;;12.69;45.08;100129.53;129970;1101;22587;-65
2021/05/09 10:05:13;;;;;;;3.20;1.70;;;;;;;12.72;44.39;100146.22;129993;1101;22544;-66
2021/05/09 10:07:41;;;;;;;2.95;1.45;;;;;;;12.70;43.79;100140.18;129981;1101;23714;-66
2021/05/09 10:10:09;;;;;;;2.78;1.83;;;;;;;12.63;44.45;100142.30;129964;1101;22522;-67
2021/05/09 10:12:38;;;;;;;2.88;1.93;;;;;;;12.59;45.72;100146.63;129928;1101;22548;-66
2021/05/09 10:15:07;;;;;;;2.38;1.85;;;;;;;12.57;45.76;100153.42;130008;1101;22552;-67
2021/05/09 10:17:37;;;;;;;1.63;1.50;;;;;;;12.51;44.88;100154.46;129998;1101;23796;-66
2021/05/09 10:20:06;;;;;;;1.70;1.05;;;;;;;12.50;44.22;100158.27;129962;1101;22518;-66
2021/05/09 10:22:34;;;;;;;1.48;1.10;;;;;;;12.48;42.97;100155.79;129955;1101;23035;-71
2021/05/09 10:25:03;;;;;;;2.73;1.38;;;;;;;12.47;43.74;100158.77;129973;1101;22546;-70
2021/05/09 10:27:37;;;;;;;2.05;1.40;;;;;;;12.50;44.54;100169.20;129975;1101;22627;-70
2021/05/09 10:30:09;;;;;;;1.90;1.70;;;;;;;12.51;44.36;100165.39;130009;1100;23774;-70
2021/05/09 10:32:37;;;;;;;2.05;1.60;;;;;;;12.48;44.88;100169.45;129977;1101;22538;-71
2021/05/09 10:35:07;;;;;;;1.37;1.27;;;;;;;12.45;45.31;100161.77;129977;1101;23036;-70
2021/05/09 10:37:38;;;;;;;3.10;1.68;;;;;;;12.46;45.65;100168.05;130008;1101;22591;-70
2021/05/09 10:40:40;;;;;;;2.10;1.30;;;;;;;12.47;44.66;100156.88;129982;1101;23453;-70
2021/05/09 10:43:08;;;;;;;1.45;1.20;;;;;;;12.50;43.77;100150.90;129986;1101;22573;-70
2021/05/09 10:45:39;;;;;;;1.20;1.10;;;;;;;12.59;43.77;100151.27;130030;1101;22613;-70
2021/05/09 10:48:18;;;;;;;1.60;1.30;;;;;;;12.68;44.05;100160.68;130015;1101;22551;-69
2021/05/09 10:50:50;;;;;;;3.30;1.43;;;;;;;12.76;43.53;100157.48;130002;1101;22558;-69
2021/05/09 10:53:36;;;;;;;2.90;1.03;;;;;;;12.80;43.58;100147.69;129979;1101;22664;-66
2021/05/09 10:56:15;;;;;;;2.00;1.58;;;;;;;12.84;44.08;100148.00;129996;1101;22553;-66
2021/05/09 10:58:50;;;;;;;1.38;1.03;;;;;;;12.90;44.48;100153.25;129990;1101;22549;-66
2021/05/09 11:01:23;;;;;;;5.33;1.18;;;;;;;12.98;44.15;100150.08;129996;1101;23438;-66
2021/05/09 11:04:03;;;;;;;1.68;1.10;;;;;;;13.03;43.76;100147.36;129981;1101;22532;-67
2021/05/09 11:06:33;;;;;;;1.78;1.20;;;;;;;13.07;44.19;100153.98;130011;1101;22512;-66
2021/05/09 11:09:14;;;;;;;1.60;1.20;;;;;;;13.13;42.75;100148.56;129995;1101;22588;-67
2021/05/09 11:11:45;;;;;;;1.20;1.10;;;;;;;13.14;41.58;100156.48;129998;1101;22535;-67
2021/05/09 11:14:17;;;;;;;1.10;1.00;;;;;;;13.06;40.92;100151.50;130001;1101;22646;-67
2021/05/09 11:17:07;;;;;;;1.25;1.10;;;;;;;12.97;40.56;100159.36;130011;1101;23073;-68
2021/05/09 11:19:46;;;;;;;2.20;1.10;;;;;;;12.87;41.10;100151.03;129962;1101;22583;-68
2021/05/09 11:22:18;;;;;;;1.55;1.00;;;;;;;12.78;41.92;100138.91;129983;1101;23620;-68
2021/05/09 11:24:53;;;;;;;1.93;1.30;;;;;;;12.82;41.53;100137.32;129997;1101;22506;-67
2021/05/09 11:27:22;;;;;;;5.33;1.85;;;;;;;12.80;42.10;100144.95;130017;1101;22614;-67
2021/05/09 11:29:51;;;;;;;1.70;1.40;;;;;;;12.82;41.76;100153.73;129983;1101;23084;-68
2021/05/09 11:32:20;;;;;;;2.95;1.00;;;;;;;12.82;42.07;100139.23;129989;1101;23317;-67
2021/05/09 11:34:53;;;;;;;1.48;0.98;;;;;;;12.80;42.66;100147.69;130021;1101;25004;-67
2021/05/09 11:37:23;;;;;;;2.13;1.33;;;;;;;12.76;42.01;100152.01;129998;1101;22523;-68